sensor_id;sensor_type;location;lat;lon;timestamp;P1;durP1;ratioP1;P2;durP2;ratioP2
41755;SDS011;27435;48.480;9.258;2022-09-20T00:00:03;5.33;;;1.60;;
41755;SDS011;27435;48.480;9.258;2022-09-20T00:02:29;5.63;;;1.67;;
41755;SDS011;27435;48.480;9.258;2022-09-20T00:04:55;6.97;;;1.60;;
41755;SDS011;27435;48.480;9.258;2022-09-20T00:07:21;8.87;;;2.20;;
41755;SDS011;27435;48.480;9.258;2022-09-20T00:09:46;8.97;;;2.00;;
41755;SDS011;27435;48.480;9.258;2022-09-20T00:12:12;8.63;;;2.20;;
41755;SDS011;27435;48.480;9.258;2022-09-20T00:14:38;4.50;;;1.70;;
41755;SDS011;27435;48.480;9.258;2022-09-20T00:17:03;6.87;;;1.80;;
41755;SDS011;27435;48.480;9.258;2022-09-20T00:19:29;5.63;;;1.50;;
41755;SDS011;27435;48.480;9.258;2022-09-20T00:21:55;7.70;;;1.77;;
41755;SDS011;27435;48.480;9.258;2022-09-20T00:24:20;9.10;;;1.70;;
41755;SDS011;27435;48.480;9.258;2022-09-20T00:26:46;5.97;;;1.93;;
41755;SDS011;27435;48.480;9.258;2022-09-20T00:29:11;5.87;;;2.03;;
41755;SDS011;27435;48.480;9.258;2022-09-20T00:31:37;6.00;;;1.50;;
41755;SDS011;27435;48.480;9.258;2022-09-20T00:34:05;4.93;;;1.60;;
41755;SDS011;27435;48.480;9.258;2022-09-20T00:36:57;7.27;;;1.83;;
41755;SDS011;27435;48.480;9.258;2022-09-20T00:39:22;6.77;;;2.80;;
41755;SDS011;27435;48.480;9.258;2022-09-20T00:41:48;8.43;;;2.10;;
41755;SDS011;27435;48.480;9.258;2022-09-20T00:49:42;6.47;;;2.30;;
41755;SDS011;27435;48.480;9.258;2022-09-20T00:52:08;7.27;;;2.50;;
41755;SDS011;27435;48.480;9.258;2022-09-20T00:54:33;9.03;;;1.60;;
41755;SDS011;27435;48.480;9.258;2022-09-20T00:57:00;7.70;;;2.13;;
41755;SDS011;27435;48.480;9.258;2022-09-20T00:59:27;3.07;;;1.73;;
41755;SDS011;27435;48.480;9.258;2022-09-20T01:02:02;8.50;;;1.67;;
41755;SDS011;27435;48.480;9.258;2022-09-20T01:04:33;10.00;;;2.17;;
41755;SDS011;27435;48.480;9.258;2022-09-20T01:07:02;6.50;;;1.90;;
41755;SDS011;27435;48.480;9.258;2022-09-20T01:09:31;3.13;;;1.47;;
41755;SDS011;27435;48.480;9.258;2022-09-20T01:11:56;8.77;;;1.80;;
41755;SDS011;27435;48.480;9.258;2022-09-20T01:14:26;9.90;;;1.80;;
41755;SDS011;27435;48.480;9.258;2022-09-20T01:16:52;6.97;;;1.87;;
41755;SDS011;27435;48.480;9.258;2022-09-20T01:19:27;12.20;;;2.30;;
41755;SDS011;27435;48.480;9.258;2022-09-20T01:22:22;11.80;;;2.50;;
41755;SDS011;27435;48.480;9.258;2022-09-20T01:25:57;6.27;;;2.60;;
41755;SDS011;27435;48.480;9.258;2022-09-20T01:28:19;7.23;;;1.97;;
41755;SDS011;27435;48.480;9.258;2022-09-20T01:35:44;5.73;;;2.27;;
41755;SDS011;27435;48.480;9.258;2022-09-20T01:38:18;6.70;;;1.80;;
41755;SDS011;27435;48.480;9.258;2022-09-20T01:46:35;6.07;;;1.70;;
41755;SDS011;27435;48.480;9.258;2022-09-20T02:00:29;10.23;;;2.40;;
41755;SDS011;27435;48.480;9.258;2022-09-20T02:05:57;5.70;;;1.50;;
41755;SDS011;27435;48.480;9.258;2022-09-20T02:11:19;6.27;;;2.50;;
41755;SDS011;27435;48.480;9.258;2022-09-20T02:16:52;12.90;;;3.00;;
41755;SDS011;27435;48.480;9.258;2022-09-20T02:33:44;9.73;;;2.53;;
41755;SDS011;27435;48.480;9.258;2022-09-20T02:39:35;6.00;;;1.80;;
41755;SDS011;27435;48.480;9.258;2022-09-20T02:42:16;7.27;;;1.63;;
41755;SDS011;27435;48.480;9.258;2022-09-20T02:47:52;5.20;;;1.90;;
41755;SDS011;27435;48.480;9.258;2022-09-20T02:50:30;3.93;;;1.40;;
41755;SDS011;27435;48.480;9.258;2022-09-20T02:56:36;10.70;;;2.03;;
41755;SDS011;27435;48.480;9.258;2022-09-20T03:02:18;5.47;;;1.77;;
41755;SDS011;27435;48.480;9.258;2022-09-20T03:10:34;5.47;;;1.50;;
41755;SDS011;27435;48.480;9.258;2022-09-20T03:13:22;4.07;;;1.30;;
41755;SDS011;27435;48.480;9.258;2022-09-20T03:19:11;4.67;;;1.93;;
41755;SDS011;27435;48.480;9.258;2022-09-20T03:30:44;11.97;;;3.27;;
41755;SDS011;27435;48.480;9.258;2022-09-20T03:44:18;4.63;;;2.53;;
41755;SDS011;27435;48.480;9.258;2022-09-20T03:46:45;7.17;;;3.23;;
41755;SDS011;27435;48.480;9.258;2022-09-20T04:00:20;9.60;;;3.00;;
41755;SDS011;27435;48.480;9.258;2022-09-20T04:08:41;7.80;;;2.00;;
41755;SDS011;27435;48.480;9.258;2022-09-20T04:16:54;12.43;;;3.07;;
41755;SDS011;27435;48.480;9.258;2022-09-20T04:22:23;8.67;;;2.83;;
41755;SDS011;27435;48.480;9.258;2022-09-20T04:24:52;6.10;;;2.80;;
41755;SDS011;27435;48.480;9.258;2022-09-20T04:32:38;6.97;;;2.33;;
41755;SDS011;27435;48.480;9.258;2022-09-20T04:35:24;7.93;;;2.77;;
41755;SDS011;27435;48.480;9.258;2022-09-20T04:38:39;5.23;;;1.80;;
41755;SDS011;27435;48.480;9.258;2022-09-20T05:12:31;13.87;;;4.33;;
41755;SDS011;27435;48.480;9.258;2022-09-20T05:20:18;9.10;;;3.33;;
41755;SDS011;27435;48.480;9.258;2022-09-20T05:23:12;7.50;;;2.30;;
41755;SDS011;27435;48.480;9.258;2022-09-20T05:34:52;9.83;;;2.43;;
41755;SDS011;27435;48.480;9.258;2022-09-20T05:43:33;6.77;;;2.70;;
41755;SDS011;27435;48.480;9.258;2022-09-20T05:46:12;7.30;;;2.77;;
41755;SDS011;27435;48.480;9.258;2022-09-20T05:54:34;6.30;;;2.37;;
41755;SDS011;27435;48.480;9.258;2022-09-20T05:57:27;7.65;;;2.13;;
41755;SDS011;27435;48.480;9.258;2022-09-20T06:00:22;8.13;;;2.37;;
41755;SDS011;27435;48.480;9.258;2022-09-20T06:11:45;10.47;;;3.40;;
41755;SDS011;27435;48.480;9.258;2022-09-20T06:22:20;12.97;;;3.60;;
41755;SDS011;27435;48.480;9.258;2022-09-20T06:26:03;9.60;;;3.40;;
41755;SDS011;27435;48.480;9.258;2022-09-20T06:28:19;9.23;;;3.77;;
41755;SDS011;27435;48.480;9.258;2022-09-20T06:30:51;6.53;;;3.37;;
41755;SDS011;27435;48.480;9.258;2022-09-20T06:33:22;8.53;;;3.77;;
41755;SDS011;27435;48.480;9.258;2022-09-20T06:42:14;7.20;;;2.93;;
41755;SDS011;27435;48.480;9.258;2022-09-20T06:44:40;8.00;;;3.07;;
41755;SDS011;27435;48.480;9.258;2022-09-20T06:47:10;11.97;;;3.20;;
41755;SDS011;27435;48.480;9.258;2022-09-20T06:49:37;4.97;;;2.43;;
41755;SDS011;27435;48.480;9.258;2022-09-20T06:52:05;7.50;;;2.37;;
41755;SDS011;27435;48.480;9.258;2022-09-20T06:54:32;8.63;;;2.40;;
41755;SDS011;27435;48.480;9.258;2022-09-20T06:56:59;6.00;;;2.70;;
41755;SDS011;27435;48.480;9.258;2022-09-20T06:59:28;9.73;;;3.77;;
41755;SDS011;27435;48.480;9.258;2022-09-20T07:01:54;9.30;;;3.70;;
41755;SDS011;27435;48.480;9.258;2022-09-20T07:04:19;7.30;;;2.40;;
41755;SDS011;27435;48.480;9.258;2022-09-20T07:06:48;6.60;;;2.37;;
41755;SDS011;27435;48.480;9.258;2022-09-20T07:09:13;9.00;;;3.03;;
41755;SDS011;27435;48.480;9.258;2022-09-20T07:11:39;6.63;;;2.83;;
41755;SDS011;27435;48.480;9.258;2022-09-20T07:14:05;7.33;;;3.10;;
41755;SDS011;27435;48.480;9.258;2022-09-20T07:16:31;6.90;;;2.47;;
41755;SDS011;27435;48.480;9.258;2022-09-20T07:19:01;9.10;;;3.10;;
41755;SDS011;27435;48.480;9.258;2022-09-20T07:21:27;10.47;;;3.47;;
41755;SDS011;27435;48.480;9.258;2022-09-20T07:23:53;8.67;;;2.73;;
41755;SDS011;27435;48.480;9.258;2022-09-20T07:26:23;10.03;;;3.07;;
41755;SDS011;27435;48.480;9.258;2022-09-20T07:28:50;10.20;;;2.70;;
41755;SDS011;27435;48.480;9.258;2022-09-20T07:31:17;8.60;;;2.70;;
41755;SDS011;27435;48.480;9.258;2022-09-20T07:33:48;5.83;;;2.10;;
41755;SDS011;27435;48.480;9.258;2022-09-20T07:36:13;7.77;;;2.37;;
41755;SDS011;27435;48.480;9.258;2022-09-20T07:38:40;6.47;;;1.80;;
41755;SDS011;27435;48.480;9.258;2022-09-20T07:41:07;7.47;;;1.97;;
41755;SDS011;27435;48.480;9.258;2022-09-20T07:43:35;10.60;;;2.17;;
41755;SDS011;27435;48.480;9.258;2022-09-20T07:46:01;6.70;;;2.20;;
41755;SDS011;27435;48.480;9.258;2022-09-20T07:48:28;5.40;;;2.10;;
41755;SDS011;27435;48.480;9.258;2022-09-20T07:50:57;5.67;;;1.83;;
41755;SDS011;27435;48.480;9.258;2022-09-20T07:53:26;10.80;;;2.40;;
41755;SDS011;27435;48.480;9.258;2022-09-20T07:58:21;7.43;;;2.77;;
41755;SDS011;27435;48.480;9.258;2022-09-20T08:00:50;9.07;;;2.33;;
41755;SDS011;27435;48.480;9.258;2022-09-20T08:03:20;6.90;;;2.30;;
41755;SDS011;27435;48.480;9.258;2022-09-20T08:05:46;8.50;;;2.80;;
41755;SDS011;27435;48.480;9.258;2022-09-20T08:08:12;9.43;;;2.40;;
41755;SDS011;27435;48.480;9.258;2022-09-20T08:10:38;5.80;;;2.57;;
41755;SDS011;27435;48.480;9.258;2022-09-20T08:13:05;9.47;;;2.57;;
41755;SDS011;27435;48.480;9.258;2022-09-20T08:15:31;6.80;;;2.83;;
41755;SDS011;27435;48.480;9.258;2022-09-20T08:17:57;7.30;;;3.53;;
41755;SDS011;27435;48.480;9.258;2022-09-20T08:20:22;8.83;;;3.57;;
41755;SDS011;27435;48.480;9.258;2022-09-20T08:22:48;9.57;;;3.23;;
41755;SDS011;27435;48.480;9.258;2022-09-20T08:25:13;6.83;;;3.00;;
41755;SDS011;27435;48.480;9.258;2022-09-20T08:27:41;8.67;;;3.57;;
41755;SDS011;27435;48.480;9.258;2022-09-20T08:30:07;10.17;;;5.10;;
41755;SDS011;27435;48.480;9.258;2022-09-20T08:32:33;6.47;;;3.20;;
41755;SDS011;27435;48.480;9.258;2022-09-20T08:35:02;8.07;;;3.30;;
41755;SDS011;27435;48.480;9.258;2022-09-20T08:37:27;9.87;;;4.63;;
41755;SDS011;27435;48.480;9.258;2022-09-20T08:39:53;8.40;;;4.03;;
41755;SDS011;27435;48.480;9.258;2022-09-20T08:44:53;9.37;;;4.23;;
41755;SDS011;27435;48.480;9.258;2022-09-20T08:47:24;6.07;;;3.80;;
41755;SDS011;27435;48.480;9.258;2022-09-20T08:49:59;9.23;;;3.80;;
41755;SDS011;27435;48.480;9.258;2022-09-20T08:52:29;11.43;;;4.67;;
41755;SDS011;27435;48.480;9.258;2022-09-20T08:54:59;13.10;;;4.73;;
41755;SDS011;27435;48.480;9.258;2022-09-20T08:57:26;13.73;;;4.87;;
41755;SDS011;27435;48.480;9.258;2022-09-20T09:00:00;13.77;;;5.10;;
41755;SDS011;27435;48.480;9.258;2022-09-20T09:02:29;19.83;;;5.77;;
41755;SDS011;27435;48.480;9.258;2022-09-20T09:04:56;15.33;;;4.87;;
41755;SDS011;27435;48.480;9.258;2022-09-20T09:07:22;14.33;;;4.43;;
41755;SDS011;27435;48.480;9.258;2022-09-20T09:09:50;15.13;;;4.00;;
41755;SDS011;27435;48.480;9.258;2022-09-20T09:12:22;6.37;;;3.20;;
41755;SDS011;27435;48.480;9.258;2022-09-20T09:14:52;15.43;;;3.60;;
41755;SDS011;27435;48.480;9.258;2022-09-20T09:17:24;6.37;;;3.27;;
41755;SDS011;27435;48.480;9.258;2022-09-20T09:19:58;13.00;;;3.77;;
41755;SDS011;27435;48.480;9.258;2022-09-20T09:22:39;13.13;;;3.67;;
41755;SDS011;27435;48.480;9.258;2022-09-20T09:30:20;9.00;;;3.10;;
41755;SDS011;27435;48.480;9.258;2022-09-20T09:38:39;9.00;;;2.33;;
41755;SDS011;27435;48.480;9.258;2022-09-20T09:44:00;5.45;;;1.58;;
41755;SDS011;27435;48.480;9.258;2022-09-20T09:46:33;4.73;;;1.53;;
41755;SDS011;27435;48.480;9.258;2022-09-20T09:54:25;3.87;;;1.20;;
41755;SDS011;27435;48.480;9.258;2022-09-20T09:57:12;7.47;;;1.30;;
41755;SDS011;27435;48.480;9.258;2022-09-20T09:59:50;10.70;;;2.00;;
41755;SDS011;27435;48.480;9.258;2022-09-20T10:05:14;8.50;;;1.27;;
41755;SDS011;27435;48.480;9.258;2022-09-20T10:07:54;3.03;;;1.40;;
41755;SDS011;27435;48.480;9.258;2022-09-20T10:10:38;9.90;;;1.70;;
41755;SDS011;27435;48.480;9.258;2022-09-20T10:15:55;4.13;;;1.20;;
41755;SDS011;27435;48.480;9.258;2022-09-20T10:23:51;4.37;;;1.23;;
41755;SDS011;27435;48.480;9.258;2022-09-20T10:31:56;13.07;;;1.40;;
41755;SDS011;27435;48.480;9.258;2022-09-20T11:00:19;7.83;;;1.43;;
41755;SDS011;27435;48.480;9.258;2022-09-20T11:05:32;5.38;;;1.02;;
41755;SDS011;27435;48.480;9.258;2022-09-20T11:08:10;5.55;;;2.13;;
41755;SDS011;27435;48.480;9.258;2022-09-20T11:10:56;6.28;;;1.00;;
41755;SDS011;27435;48.480;9.258;2022-09-20T11:14:03;2.72;;;0.85;;
41755;SDS011;27435;48.480;9.258;2022-09-20T11:21:39;4.78;;;1.38;;
41755;SDS011;27435;48.480;9.258;2022-09-20T11:24:13;3.05;;;0.85;;
41755;SDS011;27435;48.480;9.258;2022-09-20T11:26:48;2.20;;;1.00;;
41755;SDS011;27435;48.480;9.258;2022-09-20T11:29:23;3.35;;;0.65;;
41755;SDS011;27435;48.480;9.258;2022-09-20T11:32:00;9.45;;;1.67;;
41755;SDS011;27435;48.480;9.258;2022-09-20T11:37:02;5.67;;;1.13;;
41755;SDS011;27435;48.480;9.258;2022-09-20T11:39:29;7.50;;;1.60;;
41755;SDS011;27435;48.480;9.258;2022-09-20T11:42:17;7.43;;;1.57;;
41755;SDS011;27435;48.480;9.258;2022-09-20T11:44:46;5.67;;;1.10;;
41755;SDS011;27435;48.480;9.258;2022-09-20T11:47:32;14.70;;;1.40;;
41755;SDS011;27435;48.480;9.258;2022-09-20T11:50:16;6.83;;;1.20;;
41755;SDS011;27435;48.480;9.258;2022-09-20T11:58:16;4.65;;;1.27;;
41755;SDS011;27435;48.480;9.258;2022-09-20T12:00:50;3.60;;;1.42;;
41755;SDS011;27435;48.480;9.258;2022-09-20T12:03:20;4.65;;;1.13;;
41755;SDS011;27435;48.480;9.258;2022-09-20T12:06:00;15.30;;;1.77;;
41755;SDS011;27435;48.480;9.258;2022-09-20T12:08:39;8.38;;;1.00;;
41755;SDS011;27435;48.480;9.258;2022-09-20T12:13:38;6.13;;;1.38;;
41755;SDS011;27435;48.480;9.258;2022-09-20T12:16:13;7.32;;;1.42;;
41755;SDS011;27435;48.480;9.258;2022-09-20T12:18:46;5.13;;;1.45;;
41755;SDS011;27435;48.480;9.258;2022-09-20T12:21:21;6.80;;;1.20;;
41755;SDS011;27435;48.480;9.258;2022-09-20T12:28:51;3.95;;;1.10;;
41755;SDS011;27435;48.480;9.258;2022-09-20T12:42:02;11.82;;;1.40;;
41755;SDS011;27435;48.480;9.258;2022-09-20T12:47:26;6.18;;;0.85;;
41755;SDS011;27435;48.480;9.258;2022-09-20T12:49:56;7.05;;;1.35;;
41755;SDS011;27435;48.480;9.258;2022-09-20T13:08:30;3.13;;;0.90;;
41755;SDS011;27435;48.480;9.258;2022-09-20T13:13:54;5.28;;;0.90;;
41755;SDS011;27435;48.480;9.258;2022-09-20T13:19:44;4.38;;;1.38;;
41755;SDS011;27435;48.480;9.258;2022-09-20T13:25:00;6.63;;;1.40;;
41755;SDS011;27435;48.480;9.258;2022-09-20T13:30:41;8.88;;;1.55;;
41755;SDS011;27435;48.480;9.258;2022-09-20T13:33:40;8.63;;;2.05;;
41755;SDS011;27435;48.480;9.258;2022-09-20T13:36:00;3.80;;;1.15;;
41755;SDS011;27435;48.480;9.258;2022-09-20T13:38:27;5.55;;;1.33;;
41755;SDS011;27435;48.480;9.258;2022-09-20T13:41:02;4.72;;;1.23;;
41755;SDS011;27435;48.480;9.258;2022-09-20T13:43:35;6.90;;;1.38;;
41755;SDS011;27435;48.480;9.258;2022-09-20T13:46:15;4.18;;;1.02;;
41755;SDS011;27435;48.480;9.258;2022-09-20T13:48:51;6.28;;;1.40;;
41755;SDS011;27435;48.480;9.258;2022-09-20T13:51:33;7.05;;;1.30;;
41755;SDS011;27435;48.480;9.258;2022-09-20T13:57:04;5.03;;;0.88;;
41755;SDS011;27435;48.480;9.258;2022-09-20T13:59:39;4.00;;;1.02;;
41755;SDS011;27435;48.480;9.258;2022-09-20T14:02:19;4.97;;;0.93;;
41755;SDS011;27435;48.480;9.258;2022-09-20T14:04:48;4.10;;;0.93;;
41755;SDS011;27435;48.480;9.258;2022-09-20T14:07:17;6.13;;;1.35;;
41755;SDS011;27435;48.480;9.258;2022-09-20T14:09:43;3.83;;;1.20;;
41755;SDS011;27435;48.480;9.258;2022-09-20T14:12:09;4.32;;;1.05;;
41755;SDS011;27435;48.480;9.258;2022-09-20T14:14:36;5.57;;;1.00;;
41755;SDS011;27435;48.480;9.258;2022-09-20T14:17:04;6.18;;;1.45;;
41755;SDS011;27435;48.480;9.258;2022-09-20T14:19:32;2.83;;;0.70;;
41755;SDS011;27435;48.480;9.258;2022-09-20T14:22:04;5.35;;;0.90;;
41755;SDS011;27435;48.480;9.258;2022-09-20T14:24:31;4.80;;;0.90;;
41755;SDS011;27435;48.480;9.258;2022-09-20T14:27:13;1.85;;;0.80;;
41755;SDS011;27435;48.480;9.258;2022-09-20T14:29:50;4.15;;;1.00;;
41755;SDS011;27435;48.480;9.258;2022-09-20T14:34:43;4.15;;;0.93;;
41755;SDS011;27435;48.480;9.258;2022-09-20T14:37:21;5.30;;;1.50;;
41755;SDS011;27435;48.480;9.258;2022-09-20T14:39:48;5.53;;;1.20;;
41755;SDS011;27435;48.480;9.258;2022-09-20T14:45:06;5.28;;;1.10;;
41755;SDS011;27435;48.480;9.258;2022-09-20T14:47:54;5.05;;;1.08;;
41755;SDS011;27435;48.480;9.258;2022-09-20T14:50:33;7.60;;;1.05;;
41755;SDS011;27435;48.480;9.258;2022-09-20T14:53:05;2.88;;;0.98;;
41755;SDS011;27435;48.480;9.258;2022-09-20T14:56:25;8.07;;;1.80;;
41755;SDS011;27435;48.480;9.258;2022-09-20T15:01:36;4.55;;;1.30;;
41755;SDS011;27435;48.480;9.258;2022-09-20T15:04:08;3.63;;;1.10;;
41755;SDS011;27435;48.480;9.258;2022-09-20T15:06:48;5.38;;;1.50;;
41755;SDS011;27435;48.480;9.258;2022-09-20T15:09:14;4.45;;;1.38;;
41755;SDS011;27435;48.480;9.258;2022-09-20T15:11:42;5.55;;;1.40;;
41755;SDS011;27435;48.480;9.258;2022-09-20T15:14:08;6.77;;;1.37;;
41755;SDS011;27435;48.480;9.258;2022-09-20T15:16:34;4.78;;;1.40;;
41755;SDS011;27435;48.480;9.258;2022-09-20T15:18:59;4.67;;;1.23;;
41755;SDS011;27435;48.480;9.258;2022-09-20T15:21:25;3.93;;;1.47;;
41755;SDS011;27435;48.480;9.258;2022-09-20T15:23:51;9.77;;;1.37;;
41755;SDS011;27435;48.480;9.258;2022-09-20T15:26:18;5.53;;;1.20;;
41755;SDS011;27435;48.480;9.258;2022-09-20T15:28:45;5.63;;;1.37;;
41755;SDS011;27435;48.480;9.258;2022-09-20T15:31:11;7.63;;;1.40;;
41755;SDS011;27435;48.480;9.258;2022-09-20T15:33:39;5.57;;;1.37;;
41755;SDS011;27435;48.480;9.258;2022-09-20T15:36:06;3.17;;;1.30;;
41755;SDS011;27435;48.480;9.258;2022-09-20T15:38:32;2.97;;;0.90;;
41755;SDS011;27435;48.480;9.258;2022-09-20T15:41:01;5.57;;;1.57;;
41755;SDS011;27435;48.480;9.258;2022-09-20T15:43:30;4.47;;;1.10;;
41755;SDS011;27435;48.480;9.258;2022-09-20T15:45:56;3.90;;;1.87;;
41755;SDS011;27435;48.480;9.258;2022-09-20T15:48:40;5.63;;;1.43;;
41755;SDS011;27435;48.480;9.258;2022-09-20T15:51:07;9.33;;;1.97;;
41755;SDS011;27435;48.480;9.258;2022-09-20T15:53:39;6.73;;;1.23;;
41755;SDS011;27435;48.480;9.258;2022-09-20T15:56:19;4.80;;;1.25;;
41755;SDS011;27435;48.480;9.258;2022-09-20T15:58:48;5.03;;;1.30;;
41755;SDS011;27435;48.480;9.258;2022-09-20T16:01:15;7.97;;;1.65;;
41755;SDS011;27435;48.480;9.258;2022-09-20T16:03:42;5.75;;;1.13;;
41755;SDS011;27435;48.480;9.258;2022-09-20T16:06:09;3.97;;;1.17;;
41755;SDS011;27435;48.480;9.258;2022-09-20T16:08:37;8.07;;;1.17;;
41755;SDS011;27435;48.480;9.258;2022-09-20T16:11:04;6.00;;;1.00;;
41755;SDS011;27435;48.480;9.258;2022-09-20T16:13:31;3.28;;;1.50;;
41755;SDS011;27435;48.480;9.258;2022-09-20T16:16:01;4.20;;;1.10;;
41755;SDS011;27435;48.480;9.258;2022-09-20T16:18:27;6.63;;;1.23;;
41755;SDS011;27435;48.480;9.258;2022-09-20T16:21:13;3.60;;;1.40;;
41755;SDS011;27435;48.480;9.258;2022-09-20T16:23:40;5.87;;;1.50;;
41755;SDS011;27435;48.480;9.258;2022-09-20T16:26:10;3.30;;;1.60;;
41755;SDS011;27435;48.480;9.258;2022-09-20T16:28:39;9.43;;;1.90;;
41755;SDS011;27435;48.480;9.258;2022-09-20T16:31:05;9.20;;;3.37;;
41755;SDS011;27435;48.480;9.258;2022-09-20T16:33:31;10.33;;;1.87;;
41755;SDS011;27435;48.480;9.258;2022-09-20T16:35:58;4.33;;;1.37;;
41755;SDS011;27435;48.480;9.258;2022-09-20T16:38:24;3.63;;;1.20;;
41755;SDS011;27435;48.480;9.258;2022-09-20T16:40:49;6.40;;;1.43;;
41755;SDS011;27435;48.480;9.258;2022-09-20T16:43:15;3.00;;;1.10;;
41755;SDS011;27435;48.480;9.258;2022-09-20T16:45:47;7.13;;;1.13;;
41755;SDS011;27435;48.480;9.258;2022-09-20T16:48:12;4.77;;;1.37;;
41755;SDS011;27435;48.480;9.258;2022-09-20T16:50:38;4.47;;;1.30;;
41755;SDS011;27435;48.480;9.258;2022-09-20T16:53:04;6.33;;;1.57;;
41755;SDS011;27435;48.480;9.258;2022-09-20T16:55:29;4.27;;;1.50;;
41755;SDS011;27435;48.480;9.258;2022-09-20T16:57:55;4.77;;;1.40;;
41755;SDS011;27435;48.480;9.258;2022-09-20T17:00:20;7.53;;;1.57;;
41755;SDS011;27435;48.480;9.258;2022-09-20T17:02:49;3.27;;;1.40;;
41755;SDS011;27435;48.480;9.258;2022-09-20T17:05:15;4.70;;;1.23;;
41755;SDS011;27435;48.480;9.258;2022-09-20T17:07:41;3.87;;;1.37;;
41755;SDS011;27435;48.480;9.258;2022-09-20T17:10:08;4.70;;;1.23;;
41755;SDS011;27435;48.480;9.258;2022-09-20T17:12:34;5.97;;;1.40;;
41755;SDS011;27435;48.480;9.258;2022-09-20T17:15:06;3.50;;;0.90;;
41755;SDS011;27435;48.480;9.258;2022-09-20T17:17:35;2.90;;;1.00;;
41755;SDS011;27435;48.480;9.258;2022-09-20T17:20:01;3.60;;;1.20;;
41755;SDS011;27435;48.480;9.258;2022-09-20T17:22:27;5.17;;;1.40;;
41755;SDS011;27435;48.480;9.258;2022-09-20T17:24:53;5.47;;;1.03;;
41755;SDS011;27435;48.480;9.258;2022-09-20T17:27:19;5.93;;;1.40;;
41755;SDS011;27435;48.480;9.258;2022-09-20T17:29:45;4.70;;;1.40;;
41755;SDS011;27435;48.480;9.258;2022-09-20T17:32:11;5.60;;;1.60;;
41755;SDS011;27435;48.480;9.258;2022-09-20T17:34:37;4.00;;;1.40;;
41755;SDS011;27435;48.480;9.258;2022-09-20T17:37:03;5.33;;;1.37;;
41755;SDS011;27435;48.480;9.258;2022-09-20T17:39:29;9.63;;;1.70;;
41755;SDS011;27435;48.480;9.258;2022-09-20T17:41:55;5.80;;;1.30;;
41755;SDS011;27435;48.480;9.258;2022-09-20T17:44:21;4.53;;;1.47;;
41755;SDS011;27435;48.480;9.258;2022-09-20T17:46:48;2.80;;;1.40;;
41755;SDS011;27435;48.480;9.258;2022-09-20T17:49:18;6.00;;;2.23;;
41755;SDS011;27435;48.480;9.258;2022-09-20T17:51:46;4.03;;;1.60;;
41755;SDS011;27435;48.480;9.258;2022-09-20T17:54:17;5.73;;;2.27;;
41755;SDS011;27435;48.480;9.258;2022-09-20T17:56:44;6.43;;;1.93;;
41755;SDS011;27435;48.480;9.258;2022-09-20T17:59:12;9.13;;;2.00;;
41755;SDS011;27435;48.480;9.258;2022-09-20T18:01:40;4.67;;;2.00;;
41755;SDS011;27435;48.480;9.258;2022-09-20T18:04:07;6.77;;;2.37;;
41755;SDS011;27435;48.480;9.258;2022-09-20T18:06:37;6.80;;;2.40;;
41755;SDS011;27435;48.480;9.258;2022-09-20T18:09:10;4.77;;;2.27;;
41755;SDS011;27435;48.480;9.258;2022-09-20T18:11:39;5.17;;;2.20;;
41755;SDS011;27435;48.480;9.258;2022-09-20T18:14:07;7.37;;;2.40;;
41755;SDS011;27435;48.480;9.258;2022-09-20T18:16:46;5.60;;;2.30;;
41755;SDS011;27435;48.480;9.258;2022-09-20T18:19:11;4.83;;;2.23;;
41755;SDS011;27435;48.480;9.258;2022-09-20T18:21:39;6.90;;;3.20;;
41755;SDS011;27435;48.480;9.258;2022-09-20T18:24:07;6.63;;;3.03;;
41755;SDS011;27435;48.480;9.258;2022-09-20T18:26:34;7.23;;;2.80;;
41755;SDS011;27435;48.480;9.258;2022-09-20T18:29:11;11.73;;;4.17;;
41755;SDS011;27435;48.480;9.258;2022-09-20T18:31:42;7.33;;;2.47;;
41755;SDS011;27435;48.480;9.258;2022-09-20T18:34:12;7.30;;;2.13;;
41755;SDS011;27435;48.480;9.258;2022-09-20T18:36:43;3.43;;;2.23;;
41755;SDS011;27435;48.480;9.258;2022-09-20T18:39:12;8.43;;;2.30;;
41755;SDS011;27435;48.480;9.258;2022-09-20T18:41:38;3.43;;;1.80;;
41755;SDS011;27435;48.480;9.258;2022-09-20T18:44:09;11.27;;;2.10;;
41755;SDS011;27435;48.480;9.258;2022-09-20T18:46:38;3.23;;;1.50;;
41755;SDS011;27435;48.480;9.258;2022-09-20T18:49:08;4.27;;;1.70;;
41755;SDS011;27435;48.480;9.258;2022-09-20T18:51:36;5.00;;;1.90;;
41755;SDS011;27435;48.480;9.258;2022-09-20T18:54:06;4.77;;;2.40;;
41755;SDS011;27435;48.480;9.258;2022-09-20T18:57:20;14.53;;;6.80;;
41755;SDS011;27435;48.480;9.258;2022-09-20T18:59:28;5.80;;;3.27;;
41755;SDS011;27435;48.480;9.258;2022-09-20T19:07:59;7.80;;;4.30;;
41755;SDS011;27435;48.480;9.258;2022-09-20T19:12:39;7.03;;;3.40;;
41755;SDS011;27435;48.480;9.258;2022-09-20T19:21:14;5.93;;;2.57;;
41755;SDS011;27435;48.480;9.258;2022-09-20T19:26:37;5.40;;;2.87;;
41755;SDS011;27435;48.480;9.258;2022-09-20T19:29:19;5.93;;;2.47;;
41755;SDS011;27435;48.480;9.258;2022-09-20T19:31:47;5.93;;;2.40;;
41755;SDS011;27435;48.480;9.258;2022-09-20T19:34:19;6.87;;;3.03;;
41755;SDS011;27435;48.480;9.258;2022-09-20T19:50:50;6.63;;;2.80;;
41755;SDS011;27435;48.480;9.258;2022-09-20T19:53:18;3.83;;;2.17;;
41755;SDS011;27435;48.480;9.258;2022-09-20T19:55:47;6.33;;;2.20;;
41755;SDS011;27435;48.480;9.258;2022-09-20T19:58:17;11.83;;;2.63;;
41755;SDS011;27435;48.480;9.258;2022-09-20T20:00:43;8.47;;;3.13;;
41755;SDS011;27435;48.480;9.258;2022-09-20T20:03:13;7.23;;;2.87;;
41755;SDS011;27435;48.480;9.258;2022-09-20T20:05:41;6.10;;;2.17;;
41755;SDS011;27435;48.480;9.258;2022-09-20T20:21:50;9.13;;;4.53;;
41755;SDS011;27435;48.480;9.258;2022-09-20T20:26:54;8.63;;;3.70;;
41755;SDS011;27435;48.480;9.258;2022-09-20T20:29:20;6.70;;;3.63;;
41755;SDS011;27435;48.480;9.258;2022-09-20T20:31:46;10.50;;;4.70;;
41755;SDS011;27435;48.480;9.258;2022-09-20T20:34:11;9.03;;;5.17;;
41755;SDS011;27435;48.480;9.258;2022-09-20T20:36:41;10.97;;;5.70;;
41755;SDS011;27435;48.480;9.258;2022-09-20T20:39:07;10.77;;;4.57;;
41755;SDS011;27435;48.480;9.258;2022-09-20T20:41:34;14.50;;;5.50;;
41755;SDS011;27435;48.480;9.258;2022-09-20T20:43:59;9.57;;;3.27;;
41755;SDS011;27435;48.480;9.258;2022-09-20T20:46:32;10.70;;;3.63;;
41755;SDS011;27435;48.480;9.258;2022-09-20T20:49:00;6.63;;;3.37;;
41755;SDS011;27435;48.480;9.258;2022-09-20T20:51:27;9.33;;;3.80;;
41755;SDS011;27435;48.480;9.258;2022-09-20T20:53:53;10.37;;;3.90;;
41755;SDS011;27435;48.480;9.258;2022-09-20T20:56:20;5.70;;;3.30;;
41755;SDS011;27435;48.480;9.258;2022-09-20T20:58:50;9.60;;;3.70;;
41755;SDS011;27435;48.480;9.258;2022-09-20T21:01:23;8.13;;;3.93;;
41755;SDS011;27435;48.480;9.258;2022-09-20T21:03:53;8.63;;;3.90;;
41755;SDS011;27435;48.480;9.258;2022-09-20T21:06:22;6.53;;;3.20;;
41755;SDS011;27435;48.480;9.258;2022-09-20T21:08:49;5.33;;;2.70;;
41755;SDS011;27435;48.480;9.258;2022-09-20T21:11:22;6.93;;;3.37;;
41755;SDS011;27435;48.480;9.258;2022-09-20T21:13:53;11.10;;;3.47;;
41755;SDS011;27435;48.480;9.258;2022-09-20T21:16:22;37.17;;;13.53;;
41755;SDS011;27435;48.480;9.258;2022-09-20T21:18:51;13.17;;;5.70;;
41755;SDS011;27435;48.480;9.258;2022-09-20T21:21:18;10.17;;;3.80;;
41755;SDS011;27435;48.480;9.258;2022-09-20T21:23:46;8.33;;;4.00;;
41755;SDS011;27435;48.480;9.258;2022-09-20T21:26:15;10.57;;;4.00;;
41755;SDS011;27435;48.480;9.258;2022-09-20T21:28:42;9.40;;;3.43;;
41755;SDS011;27435;48.480;9.258;2022-09-20T21:31:10;9.57;;;2.77;;
41755;SDS011;27435;48.480;9.258;2022-09-20T21:33:40;5.50;;;2.47;;
41755;SDS011;27435;48.480;9.258;2022-09-20T21:36:07;8.57;;;2.97;;
41755;SDS011;27435;48.480;9.258;2022-09-20T21:38:38;5.67;;;3.00;;
41755;SDS011;27435;48.480;9.258;2022-09-20T21:41:15;5.60;;;2.20;;